Atascadero, CA (93422)

4:12 PM PST on January 19, 2017 (GMT -0800)
Los Gatos | | Change Station

Elev 1037 ft 35.48 °N, 120.68 °W | Updated 17 seconds ago

Partly Cloudy
Partly Cloudy
51.1 °F
Feels Like 51.1 °F
N
2.0
Wind Variable Wind from West
Gusts 2.5 mph

Today
High -- | Low -- °F
--% Chance of Precip.
Yesterday
High -- | Low -- °F
Precip. -- in
Pressure 29.86 in
Visibility 10.0 miles
Clouds Few 3100 ft
Scattered Clouds 4100 ft
Dew Point 44 °F
Humidity 76%
Rainfall 0.07 in
Snow Depth Not available.
7:09 AM 5:17 PM
Waning Gibbous, 49% visible
METAR KPRB 192353Z AUTO 21011KT 10SM FEW031 SCT041 13/08 A2986 RMK AO2 SLP109 6//// T01330083 10144 20111 55013 TSNO
Pressure 29.86 in
Visibility 10.0 miles
Clouds Few 3100 ft
Scattered Clouds 4100 ft
Dew Point 44 °F
Humidity 76%
Rainfall 0.07 in
Snow Depth Not available.
7:09 AM 5:17 PM
Waning Gibbous, 49% visible
METAR KPRB 192353Z AUTO 21011KT 10SM FEW031 SCT041 13/08 A2986 RMK AO2 SLP109 6//// T01330083 10144 20111 55013 TSNO

Get Your Daily Forecast Email!

Thanks for signing up!

Be on the lookout for a verification email in your inbox.

You'll start receiving the daily forecast at 8 AM.

×

10-Day Weather Forecast

Almanac

Astronomy

Jan. 19, 2017 Rise Set
Actual Time
Civil Twilight
Nautical Twilight
Astronomical Twilight
Moon
Length of Visible Light
Length of Day
Tomorrow will be .
, % of the Moon is Illuminated

Today's Extremes

State Highs State Lows

Community

WunderPhotos

Upload Photos

1,962,540 photos uploaded!

WunderBlog® & News

Nearby

Air Quality

  Air Quality AQ Index Pollutant
Not available.

Snow Depth

Station Depth Elevation

Earthquake Activity

City Distance Mag. Time & Date
Minimum magnitude displayed is 2.5.

Coastal Water Temperatures

Place Temperature

Stations

Nearby Weather Stations

Station Location Temp. Windchill Dew Point Humidity Wind Precip. Elev Updated Type
                   

Watches & Warnings

Small Craft Advisory, Gale Warning
Issued: 2:10 PM PST Jan. 19, 2017 – National Weather Service

... Small Craft Advisory remains in effect until 3 am PST Friday...
... Gale Warning remains in effect from 3 am to 9 PM PST Friday...

* winds... south to west winds 15 to 25 kt with gusts to 35 kt are
expected when winds are strongest.

* Seas... combined seas of 18 to 20 feet with periods around 17 seconds
are expected when waves are largest.

See the coastal waters forecast (cwflox) for more details.

Precautionary/preparedness actions...

A Gale Warning means winds of 34 to 47 knots are imminent or
occuring. Operating a vessel in gale conditions requires
experience and properly equipped vessels. It is highly
recommended that mariners without the proper experience seek safe
Harbor prior to the onset of gale conditions.

A Small Craft Advisory means that hazardous sea conditions will
exist for small craft. Inexperienced mariners... especially those
operating smaller vessels should avoid navigating in these
conditions.